Time;durP1;ratioP1;P1;durP2;ratioP2;P2;SDS_P1;SDS_P2;PMS_P1;PMS_P2;Temp;Humidity;BMP_temperature;BMP_pressure;BME280_temperature;BME280_humidity;BME280_pressure;Samples;Min_cycle;Max_cycle;Signal;HPM_P1;HPM_P2
2022/05/18 00:00:11;;;;;;;5.75;2.35;;;;;;;21.58;49.62;99352.13;3121139;28;20439;-70
2022/05/18 00:01:43;;;;;;;4.40;1.85;;;;;;;21.63;49.63;99357.00;3121162;28;20058;-71
2022/05/18 00:03:17;;;;;;;3.35;2.35;;;;;;;21.49;49.24;99339.78;3121695;28;20045;-71
2022/05/18 00:04:49;;;;;;;2.78;1.85;;;;;;;21.56;49.66;99348.81;3120798;28;20053;-71
2022/05/18 00:06:22;;;;;;;6.10;2.15;;;;;;;21.61;49.45;99360.78;3121558;28;20420;-70
2022/05/18 00:07:52;;;;;;;3.58;2.50;;;;;;;21.63;49.59;99353.53;3121507;28;20108;-70
2022/05/18 00:09:24;;;;;;;8.10;2.28;;;;;;;21.41;49.86;99322.97;3122422;28;20146;-71
2022/05/18 00:10:56;;;;;;;3.60;2.03;;;;;;;21.49;49.64;99337.16;3121136;28;20905;-71
2022/05/18 00:12:28;;;;;;;4.78;1.95;;;;;;;21.50;49.72;99340.63;3121271;28;20065;-71
2022/05/18 00:14:00;;;;;;;2.45;2.10;;;;;;;21.41;49.45;99329.09;3121267;28;20119;-71
2022/05/18 00:15:33;;;;;;;5.68;1.98;;;;;;;21.53;49.61;99345.63;3121404;28;20103;-71
2022/05/18 00:17:05;;;;;;;3.28;2.00;;;;;;;21.39;49.74;99324.97;3121182;28;20045;-72
2022/05/18 00:18:37;;;;;;;5.03;2.38;;;;;;;21.48;49.65;99334.66;3121330;28;20499;-72
2022/05/18 00:20:10;;;;;;;2.72;2.00;;;;;;;21.46;49.71;99326.03;3121173;28;20057;-72
2022/05/18 00:21:42;;;;;;;4.68;1.85;;;;;;;21.47;49.49;99325.84;3120974;28;20102;-71
2022/05/18 00:23:14;;;;;;;3.30;1.85;;;;;;;21.35;49.63;99301.41;3121244;28;20387;-71
2022/05/18 00:24:46;;;;;;;5.53;2.10;;;;;;;21.52;49.51;99326.25;3121454;28;20045;-71
2022/05/18 00:26:18;;;;;;;3.05;2.00;;;;;;;21.44;49.55;99314.72;3120669;28;20123;-70
2022/05/18 00:27:49;;;;;;;2.90;1.98;;;;;;;21.50;49.51;99322.06;3126855;28;20056;-70
2022/05/18 00:29:21;;;;;;;3.50;1.90;;;;;;;21.41;49.35;99302.63;3127101;28;20510;-71
2022/05/18 00:30:55;;;;;;;4.70;2.30;;;;;;;21.31;49.55;99299.19;3125286;28;20108;-72
2022/05/18 00:32:26;;;;;;;;;;;;;;;21.43;49.52;99321.03;3129746;28;20044;-70
2022/05/18 00:33:58;;;;;;;2.72;1.80;;;;;;;21.31;49.79;99299.19;3127355;28;20315;-70
2022/05/18 00:35:31;;;;;;;4.88;2.10;;;;;;;21.30;49.87;99292.25;3129642;28;20412;-71
2022/05/18 00:37:04;;;;;;;5.97;2.00;;;;;;;21.23;49.89;99294.63;3129106;28;20045;-71
2022/05/18 00:38:36;;;;;;;3.33;2.00;;;;;;;21.37;49.91;99311.84;3127784;28;20095;-71
2022/05/18 00:40:09;;;;;;;4.35;1.85;;;;;;;21.08;49.72;99267.00;3131845;28;20071;-71
2022/05/18 00:41:41;;;;;;;2.90;2.00;;;;;;;21.36;49.90;99302.25;3131756;28;20044;-71
2022/05/18 00:43:19;;;;;;;4.82;1.80;;;;;;;21.36;49.78;99304.91;3129693;28;20568;-70
2022/05/18 00:44:50;;;;;;;4.03;2.00;;;;;;;21.35;49.82;99305.84;3129909;28;20512;-70
2022/05/18 00:46:23;;;;;;;2.10;1.65;;;;;;;21.34;49.76;99296.25;3128814;28;20053;-70
2022/05/18 00:47:55;;;;;;;8.23;2.00;;;;;;;21.34;49.69;99294.41;3128265;28;20119;-69
2022/05/18 00:49:27;;;;;;;5.38;2.30;;;;;;;21.31;49.86;99286.78;3130990;28;20052;-70
2022/05/18 00:51:03;;;;;;;7.95;1.50;;;;;;;21.35;49.81;99293.47;3127539;28;20098;-70
2022/05/18 00:52:40;;;;;;;5.80;1.77;;;;;;;21.39;49.97;99298.47;3129745;28;20049;-70
2022/05/18 00:54:16;;;;;;;3.97;1.92;;;;;;;21.39;49.68;99288.72;3125496;28;20506;-71
2022/05/18 00:55:52;;;;;;;6.47;2.50;;;;;;;21.42;49.65;99291.06;3121041;28;20120;-70
2022/05/18 00:57:27;;;;;;;2.08;1.70;;;;;;;21.43;49.64;99300.66;3120701;28;20053;-70
2022/05/18 00:59:03;;;;;;;3.85;1.98;;;;;;;21.39;49.70;99294.00;3118434;28;20111;-70
2022/05/18 01:00:36;;;;;;;3.75;2.03;;;;;;;21.17;49.67;99263.47;3120565;28;20103;-70
2022/05/18 01:02:12;;;;;;;3.20;2.13;;;;;;;21.31;49.91;99275.34;3120497;28;20053;-71
2022/05/18 01:03:48;;;;;;;4.70;2.20;;;;;;;21.42;49.84;99298.19;3112119;28;20539;-71
2022/05/18 01:05:24;;;;;;;5.82;1.77;;;;;;;21.40;49.98;99290.38;3125101;28;20037;-71
2022/05/18 01:07:05;;;;;;;5.35;2.35;;;;;;;21.38;49.92;99296.78;3114267;28;20061;-71
2022/05/18 01:08:46;;;;;;;2.95;1.90;;;;;;;21.37;50.32;99303.91;3114784;28;20058;-71
2022/05/18 01:10:18;;;;;;;3.55;1.73;;;;;;;21.33;50.17;99291.94;3114993;28;20470;-71
2022/05/18 01:11:50;;;;;;;3.63;1.85;;;;;;;21.22;50.01;99273.63;3120580;28;20553;-71
2022/05/18 01:13:21;;;;;;;2.63;2.03;;;;;;;21.39;50.20;99315.19;3120508;28;20053;-70
2022/05/18 01:14:56;;;;;;;3.83;2.22;;;;;;;21.25;50.43;99292.66;3120656;28;20465;-70
2022/05/18 01:16:30;;;;;;;3.70;2.60;;;;;;;21.28;50.62;99297.66;3120482;28;20140;-71
2022/05/18 01:18:03;;;;;;;2.28;1.80;;;;;;;21.35;50.41;99301.41;3120300;28;20061;-70
2022/05/18 01:19:38;;;;;;;2.58;1.95;;;;;;;21.33;50.62;99305.19;3120263;28;20053;-70
2022/05/18 01:21:10;;;;;;;4.82;1.98;;;;;;;21.33;50.82;99305.19;3120348;28;20499;-71
2022/05/18 01:22:53;;;;;;;4.80;1.70;;;;;;;21.28;50.93;99288.91;3120370;28;20060;-70
2022/05/18 01:24:33;;;;;;;2.72;2.45;;;;;;;21.29;50.91;99303.78;3120260;28;20057;-68
2022/05/18 01:26:13;;;;;;;3.53;1.90;;;;;;;21.20;51.17;99287.00;3120307;28;20133;-69
2022/05/18 01:27:47;;;;;;;4.40;2.20;;;;;;;21.09;51.47;99284.56;3120413;28;20045;-68
2022/05/18 01:29:22;;;;;;;3.25;2.00;;;;;;;21.14;51.61;99291.06;3120306;28;20057;-68
2022/05/18 01:30:54;;;;;;;3.53;2.33;;;;;;;21.17;51.64;99286.47;3120303;28;20054;-68
2022/05/18 01:32:26;;;;;;;4.22;2.15;;;;;;;21.09;52.12;99282.75;3120085;28;20053;-69
2022/05/18 01:34:00;;;;;;;;;;;;;;;21.10;52.09;99296.81;3124445;28;20095;-71
2022/05/18 01:35:34;;;;;;;3.58;2.10;;;;;;;20.73;52.40;99243.94;3120372;28;20518;-69
2022/05/18 01:37:06;;;;;;;3.17;2.10;;;;;;;20.97;52.50;99278.66;3120184;28;20049;-69
2022/05/18 01:38:38;;;;;;;4.63;2.70;;;;;;;21.02;52.42;99283.50;3120345;28;20049;-69
2022/05/18 01:40:15;;;;;;;4.57;2.22;;;;;;;20.92;52.60;99262.38;3120207;28;20136;-70
2022/05/18 01:41:55;;;;;;;6.03;2.30;;;;;;;20.76;52.60;99235.72;3120290;28;20115;-70
2022/05/18 01:43:32;;;;;;;3.00;2.08;;;;;;;20.95;52.83;99264.72;3120499;28;20046;-70
2022/05/18 01:45:05;;;;;;;8.15;2.10;;;;;;;21.01;52.78;99279.19;3120181;28;20068;-70
2022/05/18 01:46:37;;;;;;;3.92;2.47;;;;;;;20.77;52.92;99240.88;3120350;28;20060;-70
2022/05/18 01:48:09;;;;;;;6.80;2.45;;;;;;;20.98;53.02;99280.31;3122563;28;20401;-70
2022/05/18 01:49:44;;;;;;;2.08;1.75;;;;;;;20.76;53.07;99244.47;3120328;28;20050;-70
2022/05/18 01:51:26;;;;;;;4.22;2.17;;;;;;;20.92;53.24;99277.44;3120271;28;20049;-71
2022/05/18 01:52:58;;;;;;;4.72;2.10;;;;;;;20.83;53.11;99263.28;3119968;28;20045;-70
2022/05/18 01:54:30;;;;;;;8.05;2.38;;;;;;;20.91;53.33;99268.63;3120358;28;20057;-70
2022/05/18 01:56:02;;;;;;;4.30;1.88;;;;;;;20.93;53.11;99269.31;3113547;28;20123;-70
2022/05/18 01:57:34;;;;;;;3.15;2.20;;;;;;;20.85;53.16;99250.69;3120204;28;20053;-70
2022/05/18 01:59:07;;;;;;;2.28;1.90;;;;;;;20.87;53.00;99240.81;3120134;28;20068;-70
2022/05/18 02:00:39;;;;;;;5.63;2.45;;;;;;;20.99;52.87;99259.97;3126871;28;20049;-69
2022/05/18 02:02:12;;;;;;;3.15;2.05;;;;;;;20.92;53.08;99243.03;3120238;28;20055;-70
2022/05/18 02:03:44;;;;;;;5.53;2.10;;;;;;;20.73;52.79;99214.84;3119316;28;20054;-69
2022/05/18 02:05:16;;;;;;;4.50;2.20;;;;;;;20.96;52.86;99252.31;3120014;28;20079;-69
2022/05/18 02:06:48;;;;;;;2.97;2.20;;;;;;;20.94;52.84;99252.50;3120516;28;20045;-68
2022/05/18 02:08:22;;;;;;;3.53;1.90;;;;;;;20.99;52.82;99252.03;3121532;28;20057;-69
2022/05/18 02:09:52;;;;;;;3.58;2.25;;;;;;;20.89;52.75;99237.03;3122589;28;20055;-68
2022/05/18 02:11:25;;;;;;;2.75;1.80;;;;;;;20.94;52.72;99244.53;3122827;28;20510;-68
2022/05/18 02:12:57;;;;;;;3.08;2.10;;;;;;;20.96;52.61;99241.72;3122761;28;20111;-68
2022/05/18 02:14:30;;;;;;;2.40;1.88;;;;;;;20.98;52.72;99253.84;3122470;28;20149;-68
2022/05/18 02:16:03;;;;;;;3.67;2.15;;;;;;;20.89;52.94;99244.16;3122332;28;20123;-68
2022/05/18 02:17:35;;;;;;;4.38;2.20;;;;;;;20.89;53.14;99252.09;3122555;28;20069;-68
2022/05/18 02:19:07;;;;;;;3.35;2.38;;;;;;;20.76;53.24;99235.72;3122888;28;20156;-68
2022/05/18 02:20:39;;;;;;;5.35;2.17;;;;;;;20.87;53.33;99251.41;3122510;28;20384;-70
2022/05/18 02:22:11;;;;;;;3.78;2.42;;;;;;;20.87;53.21;99248.75;3122113;28;20045;-69
2022/05/18 02:23:43;;;;;;;4.85;2.08;;;;;;;20.81;53.36;99238.75;3122705;28;20140;-68
2022/05/18 02:25:16;;;;;;;5.13;2.17;;;;;;;20.81;53.47;99252.81;3122341;28;20430;-70
2022/05/18 02:26:47;;;;;;;3.13;2.20;;;;;;;20.74;53.72;99243.81;3122228;28;20057;-70
2022/05/18 02:28:19;;;;;;;4.95;2.25;;;;;;;20.63;53.82;99230.78;3122190;28;20485;-71
2022/05/18 02:29:53;;;;;;;4.50;2.60;;;;;;;20.67;54.13;99240.09;3121550;28;20099;-71
2022/05/18 02:31:24;;;;;;;5.22;2.55;;;;;;;20.57;54.09;99240.13;3121778;28;20054;-71
2022/05/18 02:32:56;;;;;;;3.50;2.20;;;;;;;20.64;54.29;99253.59;3122333;28;20050;-71
2022/05/18 02:34:28;;;;;;;4.45;2.33;;;;;;;20.49;54.47;99231.25;3121965;28;20112;-71
2022/05/18 02:36:01;;;;;;;8.57;2.55;;;;;;;20.41;54.47;99229.34;3122541;28;20049;-71
2022/05/18 02:37:33;;;;;;;5.80;2.10;;;;;;;20.37;54.71;99234.06;3121403;28;20053;-72
2022/05/18 02:39:15;;;;;;;5.25;2.88;;;;;;;20.39;54.68;99241.88;3010507;28;21112;-69
2022/05/18 02:40:47;;;;;;;5.30;2.65;;;;;;;20.44;54.88;99261.63;3122816;28;20053;-71
2022/05/18 02:42:19;;;;;;;4.78;2.53;;;;;;;20.41;54.91;99264.56;3122321;28;20058;-70
2022/05/18 02:43:52;;;;;;;4.82;2.60;;;;;;;20.35;54.77;99251.06;3122425;28;20179;-70
2022/05/18 02:45:26;;;;;;;7.47;2.15;;;;;;;20.28;54.70;99249.97;3122423;28;20573;-70
2022/05/18 02:46:57;;;;;;;;;;;;;;;20.35;54.61;99267.78;3122580;28;20053;-70
2022/05/18 02:48:28;;;;;;;4.38;2.47;;;;;;;20.36;54.56;99268.59;3122490;28;19925;-70
2022/05/18 02:50:00;;;;;;;9.68;2.80;;;;;;;20.34;54.64;99262.63;3121840;28;20104;-70
2022/05/18 02:51:32;;;;;;;5.18;2.65;;;;;;;20.40;54.49;99278.72;3122388;28;20108;-70
2022/05/18 02:53:04;;;;;;;5.60;2.40;;;;;;;20.36;54.58;99269.44;3122270;28;20103;-70
2022/05/18 02:56:26;;;;;;;3.97;2.25;;;;;;;20.27;54.54;99258.91;3122371;28;20046;-69
2022/05/18 02:57:59;;;;;;;8.68;2.50;;;;;;;20.37;54.72;99279.03;3119981;28;20049;-69
2022/05/18 02:59:30;;;;;;;4.57;2.50;;;;;;;20.36;54.78;99285.31;3119940;28;20527;-70
2022/05/18 03:01:05;;;;;;;6.50;2.78;;;;;;;20.22;54.58;99256.66;3121906;28;20064;-70
2022/05/18 03:02:37;;;;;;;5.40;2.53;;;;;;;20.32;55.03;99281.28;3121894;28;20065;-70
2022/05/18 03:04:08;;;;;;;5.57;2.47;;;;;;;20.31;55.04;99287.53;3121152;28;20045;-69
2022/05/18 03:05:40;;;;;;;4.28;2.50;;;;;;;20.21;54.95;99271.72;3122209;28;20119;-69
2022/05/18 03:07:12;;;;;;;4.72;2.63;;;;;;;20.25;55.11;99282.00;3121918;28;20053;-69
2022/05/18 03:08:46;;;;;;;3.55;2.67;;;;;;;20.20;55.17;99274.47;3122244;28;20061;-69
2022/05/18 03:10:18;;;;;;;4.32;2.58;;;;;;;20.25;55.12;99279.34;3121860;28;20049;-70
2022/05/18 03:11:50;;;;;;;5.82;2.60;;;;;;;20.16;55.14;99267.81;3121822;28;20434;-69
2022/05/18 03:13:22;;;;;;;3.47;2.22;;;;;;;20.22;55.26;99283.94;3122396;28;20302;-69
2022/05/18 03:14:54;;;;;;;4.38;2.33;;;;;;;20.22;55.25;99283.94;3121644;28;20107;-69
2022/05/18 03:16:29;;;;;;;9.48;2.25;;;;;;;20.23;55.16;99288.28;3121998;28;20479;-69
2022/05/18 03:18:01;;;;;;;3.20;2.30;;;;;;;20.16;55.32;99300.38;3121908;28;20104;-69
2022/05/18 03:19:33;;;;;;;7.10;2.25;;;;;;;20.15;55.49;99298.72;3120739;28;20060;-69
2022/05/18 03:24:44;;;;;;;5.32;2.50;;;;;;;20.05;55.79;99303.19;3121995;28;20049;-70
2022/05/18 03:26:19;;;;;;;3.38;2.40;;;;;;;19.96;55.70;99296.09;3121001;28;20076;-70
2022/05/18 03:27:50;;;;;;;5.07;2.50;;;;;;;20.05;55.80;99311.09;3121331;28;20053;-70
2022/05/18 03:29:22;;;;;;;3.90;2.90;;;;;;;20.03;55.89;99305.16;3121775;28;20049;-71
2022/05/18 03:30:53;;;;;;;5.07;2.45;;;;;;;19.99;55.86;99314.31;3122135;28;20111;-70
2022/05/18 03:32:26;;;;;;;5.13;2.65;;;;;;;19.96;56.34;99317.25;3121785;28;20116;-70
2022/05/18 03:33:59;;;;;;;6.95;2.40;;;;;;;19.86;56.35;99313.78;3121590;28;20053;-69
2022/05/18 03:35:30;;;;;;;6.50;2.97;;;;;;;19.90;56.52;99320.44;3122168;28;20084;-70
2022/05/18 03:37:02;;;;;;;7.55;2.70;;;;;;;19.90;56.45;99317.81;3121973;28;20085;-69
2022/05/18 03:38:34;;;;;;;5.07;3.05;;;;;;;19.75;56.44;99296.25;3121500;28;20088;-69
2022/05/18 03:40:07;;;;;;;9.02;2.60;;;;;;;19.76;56.64;99298.78;3121848;28;20057;-69
2022/05/18 03:41:39;;;;;;;4.82;2.78;;;;;;;19.85;56.56;99320.06;3121875;28;20053;-70
2022/05/18 03:43:11;;;;;;;4.85;3.00;;;;;;;19.86;56.70;99319.06;3121834;28;20507;-70
2022/05/18 03:44:43;;;;;;;7.40;2.85;;;;;;;19.69;56.98;99308.22;3122016;28;20111;-70
2022/05/18 03:46:15;;;;;;;4.05;2.47;;;;;;;19.78;56.99;99322.41;3121601;28;20430;-70
2022/05/18 03:47:48;;;;;;;8.35;3.40;;;;;;;19.78;57.09;99319.75;3121479;28;20053;-70
2022/05/18 03:49:20;;;;;;;4.80;3.22;;;;;;;19.68;57.28;99319.78;3121783;28;20498;-70
2022/05/18 03:50:53;;;;;;;7.40;3.05;;;;;;;19.60;57.26;99309.03;3121595;28;20056;-70
2022/05/18 03:52:25;;;;;;;6.88;2.80;;;;;;;19.38;57.21;99272.34;3121675;28;20108;-70
2022/05/18 03:53:58;;;;;;;9.40;2.97;;;;;;;19.64;57.30;99310.44;3121742;28;20046;-69
2022/05/18 03:55:30;;;;;;;4.47;2.70;;;;;;;19.68;57.38;99317.13;3121714;28;20362;-69
2022/05/18 03:57:02;;;;;;;4.55;2.88;;;;;;;19.63;57.22;99319.31;3121623;28;20061;-69
2022/05/18 03:58:34;;;;;;;9.00;2.88;;;;;;;19.67;57.40;99330.47;3118935;28;20124;-68
2022/05/18 04:00:07;;;;;;;7.65;3.03;;;;;;;19.68;57.17;99330.34;3121359;28;20080;-70
2022/05/18 04:01:41;;;;;;;;;;;;;;;19.69;57.11;99328.53;3122227;28;20053;-71
2022/05/18 04:03:18;;;;;;;3.35;2.40;;;;;;;19.70;56.89;99323.13;3121866;28;20008;-71
2022/05/18 04:04:50;;;;;;;3.45;2.50;;;;;;;19.54;56.81;99301.66;3117812;28;20053;-71
2022/05/18 04:06:21;;;;;;;7.50;2.65;;;;;;;19.45;56.90;99284.00;3121455;28;20049;-71
2022/05/18 04:07:53;;;;;;;2.95;2.25;;;;;;;19.55;56.76;99295.41;3121310;28;20612;-71
2022/05/18 04:09:24;;;;;;;7.50;2.60;;;;;;;19.71;56.67;99326.59;3121554;28;20065;-71
2022/05/18 04:10:56;;;;;;;7.95;2.50;;;;;;;19.79;56.66;99337.31;3121540;28;20053;-71
2022/05/18 04:12:28;;;;;;;7.93;2.75;;;;;;;19.60;56.65;99314.31;3120977;28;20048;-70
2022/05/18 04:14:00;;;;;;;5.50;2.50;;;;;;;19.83;56.76;99338.69;3121488;28;20116;-70
2022/05/18 04:15:31;;;;;;;8.38;2.63;;;;;;;19.75;56.70;99339.38;3121349;28;20111;-70
2022/05/18 04:17:04;;;;;;;8.40;2.60;;;;;;;19.77;56.67;99336.59;3121292;28;20049;-70
2022/05/18 04:18:37;;;;;;;7.68;2.97;;;;;;;19.66;56.79;99313.78;3121663;28;20049;-70
2022/05/18 04:20:10;;;;;;;6.00;2.70;;;;;;;19.82;56.48;99347.59;3121420;28;20065;-70
2022/05/18 04:21:42;;;;;;;2.55;2.17;;;;;;;19.84;56.46;99339.50;3114951;28;20042;-70
2022/05/18 04:23:14;;;;;;;3.80;2.75;;;;;;;19.86;56.32;99345.50;3120920;28;20106;-70
2022/05/18 04:24:46;;;;;;;6.10;3.00;;;;;;;19.89;56.38;99350.50;3120968;28;20053;-70
2022/05/18 04:26:18;;;;;;;5.07;2.75;;;;;;;19.91;56.45;99353.84;3121319;28;20054;-70
2022/05/18 04:27:49;;;;;;;4.63;2.70;;;;;;;19.92;56.44;99353.69;3120954;28;20050;-70
2022/05/18 04:29:21;;;;;;;6.75;2.90;;;;;;;19.87;56.48;99344.50;3120925;28;20063;-70
2022/05/18 04:30:55;;;;;;;7.00;2.72;;;;;;;19.92;56.24;99358.16;3121054;28;20053;-70
2022/05/18 04:32:26;;;;;;;7.78;2.63;;;;;;;19.92;56.37;99360.78;3121004;28;20045;-70
2022/05/18 04:34:00;;;;;;;6.22;2.80;;;;;;;19.80;56.22;99338.13;3115106;28;20057;-71
2022/05/18 04:35:32;;;;;;;9.00;2.75;;;;;;;19.88;56.15;99348.84;3121446;28;20049;-71
2022/05/18 04:37:04;;;;;;;8.48;2.67;;;;;;;19.78;56.47;99339.09;3120802;28;20045;-71
2022/05/18 04:38:36;;;;;;;19.92;3.47;;;;;;;19.91;56.46;99361.78;3121295;28;20469;-71
2022/05/18 04:40:08;;;;;;;5.47;2.92;;;;;;;19.81;56.50;99343.25;3120947;28;20049;-72
2022/05/18 04:41:40;;;;;;;7.05;2.83;;;;;;;19.71;56.50;99330.06;3120948;28;20568;-71
2022/05/18 04:43:12;;;;;;;5.13;2.70;;;;;;;19.77;56.51;99345.34;3120925;28;20057;-72
2022/05/18 04:44:44;;;;;;;9.68;2.58;;;;;;;19.88;56.47;99364.69;3120907;28;20875;-71
2022/05/18 04:46:16;;;;;;;9.07;2.67;;;;;;;19.91;56.40;99364.41;3114727;28;20053;-71
2022/05/18 04:47:48;;;;;;;3.70;2.58;;;;;;;19.82;56.20;99344.09;3120701;28;20111;-71
2022/05/18 04:49:22;;;;;;;3.55;2.35;;;;;;;19.95;56.32;99355.22;3120954;28;20053;-71
2022/05/18 04:50:54;;;;;;;8.10;2.70;;;;;;;19.99;56.13;99367.16;3120887;28;20804;-71
2022/05/18 04:52:26;;;;;;;6.40;2.83;;;;;;;19.86;55.83;99340.22;3120863;28;20061;-71
2022/05/18 04:53:58;;;;;;;10.32;2.60;;;;;;;19.97;55.82;99351.47;3121076;28;20127;-71
2022/05/18 04:55:30;;;;;;;7.35;2.45;;;;;;;20.04;55.72;99364.94;3121088;28;20459;-71
2022/05/18 04:57:02;;;;;;;9.45;2.92;;;;;;;20.17;55.77;99367.28;3120722;28;20056;-70
2022/05/18 04:58:34;;;;;;;8.95;3.42;;;;;;;20.23;55.55;99374.66;3120397;28;20056;-71
2022/05/18 05:00:09;;;;;;;5.97;2.83;;;;;;;20.21;55.42;99374.00;3120741;28;20049;-69
2022/05/18 05:01:42;;;;;;;10.40;2.70;;;;;;;20.28;55.42;99380.38;3122077;28;20041;-70
2022/05/18 05:03:14;;;;;;;;;;;;;;;20.31;55.28;99369.50;3121591;28;20060;-71
2022/05/18 05:04:48;;;;;;;8.38;3.65;;;;;;;20.36;55.27;99382.31;3119623;28;20464;-72
2022/05/18 05:06:20;;;;;;;8.88;3.55;;;;;;;20.41;55.06;99378.28;3119103;28;20053;-70
2022/05/18 05:07:51;;;;;;;9.38;3.30;;;;;;;20.45;54.82;99382.28;3116044;28;20107;-70
2022/05/18 05:09:24;;;;;;;11.25;3.10;;;;;;;20.52;54.88;99389.66;3115242;28;20061;-71
2022/05/18 05:10:56;;;;;;;;;;;;;;;20.53;54.74;99386.91;3115603;28;20525;-71
2022/05/18 05:12:28;;;;;;;8.27;3.20;;;;;;;20.59;54.55;99377.56;3116031;28;20011;-72
2022/05/18 05:14:00;;;;;;;5.25;2.80;;;;;;;20.43;54.51;99363.06;3115623;28;20064;-72
2022/05/18 05:15:33;;;;;;;11.38;3.67;;;;;;;20.51;54.28;99367.66;3115740;28;20510;-76
2022/05/18 05:17:05;;;;;;;6.45;2.80;;;;;;;20.68;54.17;99385.47;3115699;28;20057;-74
2022/05/18 05:18:38;;;;;;;4.43;3.15;;;;;;;20.75;53.76;99396.31;3115473;28;20052;-76
2022/05/18 05:20:13;;;;;;;11.00;2.60;;;;;;;20.61;53.65;99363.19;3115557;28;20136;-69
2022/05/18 05:21:45;;;;;;;5.50;3.10;;;;;;;20.80;53.66;99380.84;3115250;28;20503;-71
2022/05/18 05:23:17;;;;;;;6.85;3.15;;;;;;;20.93;53.66;99399.03;3115308;28;20103;-69
2022/05/18 05:24:49;;;;;;;6.65;2.97;;;;;;;20.99;53.50;99400.25;3115690;28;20057;-70
2022/05/18 05:26:21;;;;;;;6.07;3.00;;;;;;;21.02;53.46;99389.38;3121315;28;20549;-70
2022/05/18 05:27:55;;;;;;;7.05;4.05;;;;;;;21.06;53.24;99388.94;3123755;28;20049;-71
2022/05/18 05:29:27;;;;;;;6.38;2.90;;;;;;;21.18;52.98;99401.97;3123420;28;20459;-68
2022/05/18 05:31:02;;;;;;;15.40;3.25;;;;;;;21.23;52.61;99391.78;3117449;28;20486;-68
2022/05/18 05:32:34;;;;;;;8.57;2.90;;;;;;;21.28;52.50;99400.13;3115499;28;20111;-69
2022/05/18 05:34:07;;;;;;;6.63;3.50;;;;;;;21.33;52.49;99400.53;3115298;28;20119;-68
2022/05/18 05:35:41;;;;;;;4.82;3.13;;;;;;;21.43;52.37;99405.78;3115530;28;20068;-72
2022/05/18 05:37:13;;;;;;;11.38;3.60;;;;;;;21.48;52.32;99400.88;3114554;28;20400;-68
2022/05/18 05:38:45;;;;;;;5.80;2.90;;;;;;;21.54;52.03;99398.47;3115271;28;20061;-68
2022/05/18 05:40:17;;;;;;;8.30;3.60;;;;;;;21.48;51.97;99387.66;3115829;28;20450;-71
2022/05/18 05:41:49;;;;;;;8.95;3.15;;;;;;;21.71;51.78;99403.91;3115006;28;20049;-72
2022/05/18 05:43:21;;;;;;;14.60;3.25;;;;;;;21.75;51.51;99403.47;3124698;28;20114;-70
2022/05/18 05:44:53;;;;;;;5.90;3.25;;;;;;;21.86;51.42;99407.75;3121821;28;20614;-67
2022/05/18 05:46:27;;;;;;;3.95;2.75;;;;;;;21.92;51.30;99407.13;3114959;28;20335;-73
2022/05/18 05:47:59;;;;;;;8.73;2.90;;;;;;;21.96;51.28;99419.09;3115158;28;20374;-71
2022/05/18 05:49:31;;;;;;;8.65;3.20;;;;;;;21.81;51.29;99372.91;3115403;28;20518;-76
2022/05/18 05:51:05;;;;;;;6.53;3.30;;;;;;;22.12;50.92;99406.97;3118398;28;20813;-72
2022/05/18 05:52:37;;;;;;;9.02;3.65;;;;;;;22.18;50.57;99404.59;3120086;28;20519;-71
2022/05/18 05:54:08;;;;;;;7.32;3.60;;;;;;;22.26;50.47;99412.59;3124480;28;20053;-67
2022/05/18 05:55:40;;;;;;;14.48;7.45;;;;;;;22.34;50.35;99411.00;3123861;28;20059;-68
2022/05/18 05:57:12;;;;;;;8.27;4.03;;;;;;;22.42;49.97;99408.38;3122060;28;20140;-68
2022/05/18 05:58:44;;;;;;;12.18;3.40;;;;;;;22.46;49.86;99417.72;3115160;28;20524;-71
2022/05/18 06:00:17;;;;;;;11.23;5.57;;;;;;;22.51;49.53;99411.94;3122315;28;20135;-75
2022/05/18 06:01:49;;;;;;;16.17;5.30;;;;;;;22.60;49.74;99416.31;3114970;28;20671;-70
2022/05/18 06:03:21;;;;;;;14.30;9.43;;;;;;;22.63;49.65;99423.97;3115169;28;20049;-71
2022/05/18 06:04:55;;;;;;;25.38;16.33;;;;;;;22.55;49.47;99403.50;3110494;28;20057;-80
2022/05/18 06:06:28;;;;;;;5.78;3.20;;;;;;;22.68;49.10;99421.66;3108944;28;20057;-69
2022/05/18 06:08:00;;;;;;;;;;;;;;;22.63;49.09;99408.06;3115283;28;20489;-67
2022/05/18 06:09:32;;;;;;;13.75;3.75;;;;;;;22.59;49.18;99412.00;3116082;28;19925;-67
2022/05/18 06:11:06;;;;;;;9.00;3.40;;;;;;;22.58;49.09;99428.91;3120456;28;20053;-69
2022/05/18 06:12:38;;;;;;;10.77;3.78;;;;;;;22.54;49.29;99420.44;3123343;28;20087;-67
2022/05/18 06:14:11;;;;;;;11.27;3.35;;;;;;;22.49;49.06;99418.22;3116264;28;20056;-69
2022/05/18 06:15:43;;;;;;;11.75;3.70;;;;;;;22.45;49.30;99408.94;3121257;28;20054;-68
2022/05/18 06:17:15;;;;;;;3.50;3.13;;;;;;;22.45;49.45;99408.06;3117728;28;20053;-69
2022/05/18 06:18:47;;;;;;;6.30;3.72;;;;;;;22.60;49.21;99418.97;3125260;28;20635;-66
2022/05/18 06:20:18;;;;;;;7.28;2.92;;;;;;;22.69;49.15;99410.09;3125392;28;20060;-66
2022/05/18 06:21:51;;;;;;;9.38;3.97;;;;;;;22.81;48.93;99418.63;3127182;28;20057;-65
2022/05/18 06:23:23;;;;;;;9.50;3.47;;;;;;;22.90;49.08;99421.16;3126875;28;20045;-64
2022/05/18 06:24:55;;;;;;;6.40;2.90;;;;;;;22.89;48.76;99411.53;3121770;28;20062;-63
2022/05/18 06:26:27;;;;;;;5.82;3.63;;;;;;;23.02;48.82;99412.94;3128378;28;20045;-70
2022/05/18 06:27:59;;;;;;;7.38;3.15;;;;;;;23.07;48.50;99426.56;3120336;28;20060;-77
2022/05/18 06:29:31;;;;;;;4.82;3.47;;;;;;;23.11;48.23;99412.81;3120499;28;20084;-72
2022/05/18 06:31:04;;;;;;;10.07;3.33;;;;;;;23.17;47.70;99419.31;3120481;28;20053;-72
2022/05/18 06:32:35;;;;;;;5.05;3.00;;;;;;;23.26;47.33;99423.66;3119755;28;20140;-72
2022/05/18 06:34:08;;;;;;;14.48;3.75;;;;;;;23.35;47.33;99433.34;3120205;28;20064;-72
2022/05/18 06:35:40;;;;;;;14.95;3.50;;;;;;;23.40;47.30;99422.25;3120548;28;20046;-72
2022/05/18 06:37:13;;;;;;;8.00;3.60;;;;;;;23.25;46.83;99403.41;3119769;28;20061;-70
2022/05/18 06:38:45;;;;;;;18.02;4.00;;;;;;;23.45;46.21;99424.41;3120209;28;20045;-72
2022/05/18 06:40:18;;;;;;;26.65;3.90;;;;;;;23.55;46.20;99438.41;3116234;28;20132;-71
2022/05/18 06:41:49;;;;;;;;;;;;;;;23.61;46.13;99429.78;3120713;28;20137;-71
2022/05/18 06:43:21;;;;;;;12.48;2.92;;;;;;;23.62;45.86;99432.25;3118255;28;20322;-68
2022/05/18 06:44:53;;;;;;;13.15;3.60;;;;;;;23.65;45.77;99432.94;3119878;28;20155;-69
2022/05/18 06:46:26;;;;;;;7.43;3.55;;;;;;;23.71;45.83;99435.81;3119751;28;20087;-72
2022/05/18 06:47:58;;;;;;;23.02;3.40;;;;;;;23.61;45.50;99416.50;3120111;28;20049;-72
2022/05/18 06:49:30;;;;;;;9.48;3.25;;;;;;;23.72;45.60;99439.28;3120084;28;20053;-72
2022/05/18 06:51:02;;;;;;;25.15;3.97;;;;;;;23.65;45.57;99423.13;3120605;28;20049;-67
2022/05/18 06:52:36;;;;;;;5.32;3.53;;;;;;;23.81;45.65;99438.31;3125031;28;20053;-74
2022/05/18 06:54:08;;;;;;;9.57;3.40;;;;;;;23.81;45.42;99440.97;3121259;28;20522;-72
2022/05/18 06:55:40;;;;;;;10.43;3.67;;;;;;;23.78;45.36;99458.09;3122483;28;20137;-70
2022/05/18 06:57:12;;;;;;;6.32;3.40;;;;;;;23.75;45.26;99445.13;3115911;28;20057;-73
2022/05/18 06:58:44;;;;;;;10.07;3.90;;;;;;;23.78;45.53;99447.47;3122386;28;20053;-72
2022/05/18 07:00:17;;;;;;;12.65;3.50;;;;;;;23.77;45.43;99448.44;3122600;28;20049;-71
2022/05/18 07:01:48;;;;;;;4.28;3.15;;;;;;;23.74;45.85;99448.78;3122343;28;20057;-71
2022/05/18 07:03:20;;;;;;;6.20;3.55;;;;;;;23.71;45.82;99451.75;3122140;28;20041;-72
2022/05/18 07:04:52;;;;;;;8.85;3.30;;;;;;;23.72;46.12;99449.91;3121470;28;20049;-70
2022/05/18 07:06:26;;;;;;;9.18;3.20;;;;;;;23.58;46.30;99432.75;3126832;28;20080;-70
2022/05/18 07:07:59;;;;;;;10.50;3.10;;;;;;;23.53;46.19;99438.53;3121895;28;20053;-72
2022/05/18 07:09:31;;;;;;;;;;;;;;;23.65;46.14;99454.19;3122559;28;20061;-76
2022/05/18 07:11:03;;;;;;;6.63;3.67;;;;;;;23.43;46.02;99429.88;3122295;28;19964;-76
2022/05/18 07:12:37;;;;;;;8.15;3.13;;;;;;;23.40;46.35;99435.53;3121802;28;20072;-70
2022/05/18 07:14:09;;;;;;;11.35;3.50;;;;;;;23.51;46.13;99458.28;3122241;28;20484;-72
2022/05/18 07:15:41;;;;;;;7.97;3.38;;;;;;;23.49;46.49;99468.28;3124848;28;20119;-70
2022/05/18 07:17:14;;;;;;;7.57;3.50;;;;;;;23.42;46.39;99453.94;3127280;28;20416;-73
2022/05/18 07:18:47;;;;;;;7.50;2.90;;;;;;;23.09;46.24;99413.97;3121834;28;20049;-73
2022/05/18 07:20:19;;;;;;;;;;;;;;;23.29;46.44;99454.41;3128739;28;20045;-75
2022/05/18 07:21:51;;;;;;;12.30;3.20;;;;;;;23.19;46.53;99466.97;3122148;28;19921;-74